sensor_id;sensor_type;location;lat;lon;timestamp;P1;durP1;ratioP1;P2;durP2;ratioP2
42186;SDS011;27858;51.414;0.018;2023-12-22T00:00:07;10.98;;;3.78;;
42186;SDS011;27858;51.414;0.018;2023-12-22T00:02:34;12.82;;;4.28;;
42186;SDS011;27858;51.414;0.018;2023-12-22T00:05:01;16.42;;;3.97;;
42186;SDS011;27858;51.414;0.018;2023-12-22T00:07:29;11.70;;;4.13;;
42186;SDS011;27858;51.414;0.018;2023-12-22T00:09:56;12.68;;;3.80;;
42186;SDS011;27858;51.414;0.018;2023-12-22T00:12:23;15.00;;;4.05;;
42186;SDS011;27858;51.414;0.018;2023-12-22T00:14:50;19.52;;;4.57;;
42186;SDS011;27858;51.414;0.018;2023-12-22T00:17:20;11.43;;;3.55;;
42186;SDS011;27858;51.414;0.018;2023-12-22T00:19:48;15.52;;;4.60;;
42186;SDS011;27858;51.414;0.018;2023-12-22T00:22:15;11.70;;;3.83;;
42186;SDS011;27858;51.414;0.018;2023-12-22T00:24:45;10.73;;;3.38;;
42186;SDS011;27858;51.414;0.018;2023-12-22T00:27:11;17.85;;;4.43;;
42186;SDS011;27858;51.414;0.018;2023-12-22T00:29:38;13.07;;;3.63;;
42186;SDS011;27858;51.414;0.018;2023-12-22T00:32:05;13.05;;;4.93;;
42186;SDS011;27858;51.414;0.018;2023-12-22T00:34:36;14.65;;;5.18;;
42186;SDS011;27858;51.414;0.018;2023-12-22T00:37:02;10.90;;;4.00;;
42186;SDS011;27858;51.414;0.018;2023-12-22T00:39:30;15.50;;;4.30;;
42186;SDS011;27858;51.414;0.018;2023-12-22T00:41:57;21.67;;;5.20;;
42186;SDS011;27858;51.414;0.018;2023-12-22T00:44:24;12.15;;;2.63;;
42186;SDS011;27858;51.414;0.018;2023-12-22T00:46:53;9.25;;;2.97;;
42186;SDS011;27858;51.414;0.018;2023-12-22T00:49:20;13.13;;;3.42;;
42186;SDS011;27858;51.414;0.018;2023-12-22T00:51:48;7.53;;;3.15;;
42186;SDS011;27858;51.414;0.018;2023-12-22T00:54:15;10.23;;;3.03;;
42186;SDS011;27858;51.414;0.018;2023-12-22T00:56:42;13.48;;;3.35;;
42186;SDS011;27858;51.414;0.018;2023-12-22T00:59:08;10.95;;;3.10;;
42186;SDS011;27858;51.414;0.018;2023-12-22T01:01:37;15.68;;;3.78;;
42186;SDS011;27858;51.414;0.018;2023-12-22T01:04:04;14.50;;;3.00;;
42186;SDS011;27858;51.414;0.018;2023-12-22T01:06:31;6.07;;;2.92;;
42186;SDS011;27858;51.414;0.018;2023-12-22T01:08:58;14.65;;;3.28;;
42186;SDS011;27858;51.414;0.018;2023-12-22T01:11:25;11.13;;;2.78;;
42186;SDS011;27858;51.414;0.018;2023-12-22T01:13:52;7.15;;;2.88;;
42186;SDS011;27858;51.414;0.018;2023-12-22T01:16:19;8.73;;;2.65;;
42186;SDS011;27858;51.414;0.018;2023-12-22T01:18:48;10.02;;;2.33;;
42186;SDS011;27858;51.414;0.018;2023-12-22T01:21:15;16.73;;;3.35;;
42186;SDS011;27858;51.414;0.018;2023-12-22T01:23:43;10.35;;;3.35;;
42186;SDS011;27858;51.414;0.018;2023-12-22T01:26:09;7.88;;;2.55;;
42186;SDS011;27858;51.414;0.018;2023-12-22T01:28:36;13.55;;;3.35;;
42186;SDS011;27858;51.414;0.018;2023-12-22T01:31:03;7.68;;;2.45;;
42186;SDS011;27858;51.414;0.018;2023-12-22T01:33:30;6.70;;;1.83;;
42186;SDS011;27858;51.414;0.018;2023-12-22T01:35:56;9.32;;;2.10;;
42186;SDS011;27858;51.414;0.018;2023-12-22T01:38:23;8.55;;;1.90;;
42186;SDS011;27858;51.414;0.018;2023-12-22T01:40:50;5.05;;;2.05;;
42186;SDS011;27858;51.414;0.018;2023-12-22T01:43:17;6.82;;;1.73;;
42186;SDS011;27858;51.414;0.018;2023-12-22T01:45:48;3.30;;;1.65;;
42186;SDS011;27858;51.414;0.018;2023-12-22T01:48:18;3.40;;;1.10;;
42186;SDS011;27858;51.414;0.018;2023-12-22T01:50:45;4.50;;;1.27;;
42186;SDS011;27858;51.414;0.018;2023-12-22T01:53:12;2.72;;;0.95;;
42186;SDS011;27858;51.414;0.018;2023-12-22T01:55:39;2.97;;;0.80;;
42186;SDS011;27858;51.414;0.018;2023-12-22T01:58:06;3.05;;;0.75;;
42186;SDS011;27858;51.414;0.018;2023-12-22T02:00:34;2.65;;;0.70;;
42186;SDS011;27858;51.414;0.018;2023-12-22T02:03:01;4.60;;;0.95;;
42186;SDS011;27858;51.414;0.018;2023-12-22T02:05:28;1.73;;;0.50;;
42186;SDS011;27858;51.414;0.018;2023-12-22T02:07:56;5.63;;;1.27;;
42186;SDS011;27858;51.414;0.018;2023-12-22T02:10:23;10.07;;;1.23;;
42186;SDS011;27858;51.414;0.018;2023-12-22T02:12:50;2.88;;;0.85;;
42186;SDS011;27858;51.414;0.018;2023-12-22T02:15:17;2.05;;;0.85;;
42186;SDS011;27858;51.414;0.018;2023-12-22T02:18:04;2.47;;;1.25;;
42186;SDS011;27858;51.414;0.018;2023-12-22T02:20:41;3.65;;;1.52;;
42186;SDS011;27858;51.414;0.018;2023-12-22T02:23:10;7.07;;;1.27;;
42186;SDS011;27858;51.414;0.018;2023-12-22T02:25:37;6.30;;;0.85;;
42186;SDS011;27858;51.414;0.018;2023-12-22T02:28:05;2.72;;;1.25;;
42186;SDS011;27858;51.414;0.018;2023-12-22T02:33:05;2.15;;;1.30;;
42186;SDS011;27858;51.414;0.018;2023-12-22T02:35:35;5.30;;;1.60;;
42186;SDS011;27858;51.414;0.018;2023-12-22T02:38:04;3.88;;;0.88;;
42186;SDS011;27858;51.414;0.018;2023-12-22T02:40:33;2.47;;;1.17;;
42186;SDS011;27858;51.414;0.018;2023-12-22T02:43:02;5.53;;;1.65;;
42186;SDS011;27858;51.414;0.018;2023-12-22T02:45:30;15.30;;;2.95;;
42186;SDS011;27858;51.414;0.018;2023-12-22T02:47:56;4.03;;;1.63;;
42186;SDS011;27858;51.414;0.018;2023-12-22T02:50:23;5.47;;;1.27;;
42186;SDS011;27858;51.414;0.018;2023-12-22T02:52:50;7.00;;;1.23;;
42186;SDS011;27858;51.414;0.018;2023-12-22T02:55:18;2.53;;;1.33;;
42186;SDS011;27858;51.414;0.018;2023-12-22T02:57:45;4.65;;;1.52;;
42186;SDS011;27858;51.414;0.018;2023-12-22T03:00:12;8.60;;;1.63;;
42186;SDS011;27858;51.414;0.018;2023-12-22T03:02:39;2.67;;;1.48;;
42186;SDS011;27858;51.414;0.018;2023-12-22T03:05:06;5.10;;;1.10;;
42186;SDS011;27858;51.414;0.018;2023-12-22T03:07:33;4.40;;;1.88;;
42186;SDS011;27858;51.414;0.018;2023-12-22T03:10:00;5.20;;;1.38;;
42186;SDS011;27858;51.414;0.018;2023-12-22T03:12:26;7.50;;;2.15;;
42186;SDS011;27858;51.414;0.018;2023-12-22T03:14:53;3.85;;;1.35;;
42186;SDS011;27858;51.414;0.018;2023-12-22T03:17:20;6.32;;;1.65;;
42186;SDS011;27858;51.414;0.018;2023-12-22T03:19:47;4.93;;;1.92;;
42186;SDS011;27858;51.414;0.018;2023-12-22T03:22:14;3.65;;;1.70;;
42186;SDS011;27858;51.414;0.018;2023-12-22T03:24:41;4.82;;;1.30;;
42186;SDS011;27858;51.414;0.018;2023-12-22T03:27:07;4.78;;;1.85;;
42186;SDS011;27858;51.414;0.018;2023-12-22T03:29:34;5.45;;;1.55;;
42186;SDS011;27858;51.414;0.018;2023-12-22T03:32:01;11.88;;;2.47;;
42186;SDS011;27858;51.414;0.018;2023-12-22T03:34:28;6.05;;;1.85;;
42186;SDS011;27858;51.414;0.018;2023-12-22T03:36:55;7.85;;;3.33;;
42186;SDS011;27858;51.414;0.018;2023-12-22T03:39:22;8.48;;;1.50;;
42186;SDS011;27858;51.414;0.018;2023-12-22T03:41:48;2.75;;;1.25;;
42186;SDS011;27858;51.414;0.018;2023-12-22T03:44:15;8.00;;;1.85;;
42186;SDS011;27858;51.414;0.018;2023-12-22T03:46:42;5.15;;;1.40;;
42186;SDS011;27858;51.414;0.018;2023-12-22T03:49:09;3.63;;;1.10;;
42186;SDS011;27858;51.414;0.018;2023-12-22T03:51:36;4.03;;;0.80;;
42186;SDS011;27858;51.414;0.018;2023-12-22T03:54:04;4.93;;;1.50;;
42186;SDS011;27858;51.414;0.018;2023-12-22T03:56:30;3.63;;;1.33;;
42186;SDS011;27858;51.414;0.018;2023-12-22T03:58:57;5.03;;;1.95;;
42186;SDS011;27858;51.414;0.018;2023-12-22T04:01:24;1.63;;;0.88;;
42186;SDS011;27858;51.414;0.018;2023-12-22T04:03:51;3.47;;;1.02;;
42186;SDS011;27858;51.414;0.018;2023-12-22T04:06:18;1.67;;;1.15;;
42186;SDS011;27858;51.414;0.018;2023-12-22T04:08:45;5.05;;;1.40;;
42186;SDS011;27858;51.414;0.018;2023-12-22T04:11:12;3.10;;;0.52;;
42186;SDS011;27858;51.414;0.018;2023-12-22T04:13:39;3.95;;;0.90;;
42186;SDS011;27858;51.414;0.018;2023-12-22T04:16:06;2.03;;;1.20;;
42186;SDS011;27858;51.414;0.018;2023-12-22T04:18:36;3.05;;;0.57;;
42186;SDS011;27858;51.414;0.018;2023-12-22T04:21:06;3.50;;;0.85;;
42186;SDS011;27858;51.414;0.018;2023-12-22T04:23:33;3.42;;;0.63;;
42186;SDS011;27858;51.414;0.018;2023-12-22T04:26:00;1.35;;;0.63;;
42186;SDS011;27858;51.414;0.018;2023-12-22T04:28:28;2.25;;;0.50;;
42186;SDS011;27858;51.414;0.018;2023-12-22T04:30:55;4.75;;;1.00;;
42186;SDS011;27858;51.414;0.018;2023-12-22T04:33:22;2.05;;;0.77;;
42186;SDS011;27858;51.414;0.018;2023-12-22T04:35:49;2.65;;;0.40;;
42186;SDS011;27858;51.414;0.018;2023-12-22T04:38:16;1.50;;;0.40;;
42186;SDS011;27858;51.414;0.018;2023-12-22T04:40:43;1.27;;;0.68;;
42186;SDS011;27858;51.414;0.018;2023-12-22T04:43:10;0.50;;;0.50;;
42186;SDS011;27858;51.414;0.018;2023-12-22T04:45:37;2.85;;;0.73;;
42186;SDS011;27858;51.414;0.018;2023-12-22T04:48:04;3.22;;;1.10;;
42186;SDS011;27858;51.414;0.018;2023-12-22T04:50:31;3.15;;;1.02;;
42186;SDS011;27858;51.414;0.018;2023-12-22T04:52:59;1.98;;;0.55;;
42186;SDS011;27858;51.414;0.018;2023-12-22T04:55:26;2.17;;;0.65;;
42186;SDS011;27858;51.414;0.018;2023-12-22T04:57:53;1.50;;;0.60;;
42186;SDS011;27858;51.414;0.018;2023-12-22T05:00:20;2.33;;;0.60;;
42186;SDS011;27858;51.414;0.018;2023-12-22T05:02:46;0.20;;;0.10;;
42186;SDS011;27858;51.414;0.018;2023-12-22T05:05:13;1.65;;;0.70;;
42186;SDS011;27858;51.414;0.018;2023-12-22T05:07:41;1.80;;;0.55;;
42186;SDS011;27858;51.414;0.018;2023-12-22T05:10:08;2.95;;;0.55;;
42186;SDS011;27858;51.414;0.018;2023-12-22T05:12:35;1.85;;;0.68;;
42186;SDS011;27858;51.414;0.018;2023-12-22T05:15:02;1.27;;;0.63;;
42186;SDS011;27858;51.414;0.018;2023-12-22T05:17:29;0.73;;;0.40;;
42186;SDS011;27858;51.414;0.018;2023-12-22T05:19:56;1.60;;;0.77;;
42186;SDS011;27858;51.414;0.018;2023-12-22T05:22:23;2.03;;;0.65;;
42186;SDS011;27858;51.414;0.018;2023-12-22T05:24:50;0.55;;;0.50;;
42186;SDS011;27858;51.414;0.018;2023-12-22T05:27:16;4.80;;;0.68;;
42186;SDS011;27858;51.414;0.018;2023-12-22T05:29:44;0.90;;;0.50;;
42186;SDS011;27858;51.414;0.018;2023-12-22T05:32:11;0.77;;;0.43;;
42186;SDS011;27858;51.414;0.018;2023-12-22T05:34:38;0.60;;;0.50;;
42186;SDS011;27858;51.414;0.018;2023-12-22T05:37:05;1.17;;;0.73;;
42186;SDS011;27858;51.414;0.018;2023-12-22T05:39:31;1.13;;;0.50;;
42186;SDS011;27858;51.414;0.018;2023-12-22T05:41:58;0.60;;;0.30;;
42186;SDS011;27858;51.414;0.018;2023-12-22T05:44:25;0.68;;;0.50;;
42186;SDS011;27858;51.414;0.018;2023-12-22T05:46:56;0.20;;;0.20;;
42186;SDS011;27858;51.414;0.018;2023-12-22T05:49:23;2.35;;;0.43;;
42186;SDS011;27858;51.414;0.018;2023-12-22T05:51:52;0.57;;;0.22;;
42186;SDS011;27858;51.414;0.018;2023-12-22T05:54:18;0.95;;;0.30;;
42186;SDS011;27858;51.414;0.018;2023-12-22T05:56:46;0.95;;;0.50;;
42186;SDS011;27858;51.414;0.018;2023-12-22T05:59:13;1.85;;;0.68;;
42186;SDS011;27858;51.414;0.018;2023-12-22T06:01:40;2.58;;;0.50;;
42186;SDS011;27858;51.414;0.018;2023-12-22T06:04:06;1.05;;;0.45;;
42186;SDS011;27858;51.414;0.018;2023-12-22T06:06:33;0.30;;;0.30;;
42186;SDS011;27858;51.414;0.018;2023-12-22T06:09:00;0.28;;;0.25;;
42186;SDS011;27858;51.414;0.018;2023-12-22T06:11:27;5.07;;;0.90;;
42186;SDS011;27858;51.414;0.018;2023-12-22T06:13:54;1.27;;;0.40;;
42186;SDS011;27858;51.414;0.018;2023-12-22T06:16:20;1.92;;;0.43;;
42186;SDS011;27858;51.414;0.018;2023-12-22T06:18:48;3.92;;;0.60;;
42186;SDS011;27858;51.414;0.018;2023-12-22T06:21:14;1.20;;;0.63;;
42186;SDS011;27858;51.414;0.018;2023-12-22T06:23:41;0.93;;;0.52;;
42186;SDS011;27858;51.414;0.018;2023-12-22T06:26:08;1.08;;;0.45;;
42186;SDS011;27858;51.414;0.018;2023-12-22T06:28:36;0.82;;;0.60;;
42186;SDS011;27858;51.414;0.018;2023-12-22T06:31:04;1.08;;;0.98;;
42186;SDS011;27858;51.414;0.018;2023-12-22T06:33:44;2.13;;;0.75;;
42186;SDS011;27858;51.414;0.018;2023-12-22T06:36:18;3.15;;;0.55;;
42186;SDS011;27858;51.414;0.018;2023-12-22T06:38:52;0.73;;;0.30;;
42186;SDS011;27858;51.414;0.018;2023-12-22T06:41:22;5.05;;;0.82;;
42186;SDS011;27858;51.414;0.018;2023-12-22T06:43:54;0.70;;;0.50;;
42186;SDS011;27858;51.414;0.018;2023-12-22T06:46:22;2.45;;;0.77;;
42186;SDS011;27858;51.414;0.018;2023-12-22T06:48:52;2.63;;;0.38;;
42186;SDS011;27858;51.414;0.018;2023-12-22T06:51:24;0.63;;;0.40;;
42186;SDS011;27858;51.414;0.018;2023-12-22T06:53:56;0.55;;;0.47;;
42186;SDS011;27858;51.414;0.018;2023-12-22T06:56:25;0.63;;;0.30;;
42186;SDS011;27858;51.414;0.018;2023-12-22T06:58:53;1.52;;;0.20;;
42186;SDS011;27858;51.414;0.018;2023-12-22T07:01:30;0.65;;;0.30;;
42186;SDS011;27858;51.414;0.018;2023-12-22T07:03:59;0.82;;;0.30;;
42186;SDS011;27858;51.414;0.018;2023-12-22T07:06:28;1.15;;;0.65;;
42186;SDS011;27858;51.414;0.018;2023-12-22T07:11:39;1.08;;;0.50;;
42186;SDS011;27858;51.414;0.018;2023-12-22T07:14:07;1.15;;;0.40;;
42186;SDS011;27858;51.414;0.018;2023-12-22T07:16:34;3.50;;;0.32;;
42186;SDS011;27858;51.414;0.018;2023-12-22T07:19:02;1.27;;;0.35;;
42186;SDS011;27858;51.414;0.018;2023-12-22T07:21:29;0.75;;;0.50;;
42186;SDS011;27858;51.414;0.018;2023-12-22T07:23:57;0.98;;;0.50;;
42186;SDS011;27858;51.414;0.018;2023-12-22T07:26:27;0.80;;;0.40;;
42186;SDS011;27858;51.414;0.018;2023-12-22T07:28:54;0.85;;;0.38;;
42186;SDS011;27858;51.414;0.018;2023-12-22T07:31:21;1.58;;;0.50;;
42186;SDS011;27858;51.414;0.018;2023-12-22T07:33:48;0.85;;;0.20;;
42186;SDS011;27858;51.414;0.018;2023-12-22T07:36:15;0.35;;;0.20;;
42186;SDS011;27858;51.414;0.018;2023-12-22T07:38:42;0.88;;;0.50;;
42186;SDS011;27858;51.414;0.018;2023-12-22T07:41:09;1.55;;;0.50;;
42186;SDS011;27858;51.414;0.018;2023-12-22T07:43:37;1.70;;;0.82;;
42186;SDS011;27858;51.414;0.018;2023-12-22T07:46:05;0.90;;;0.45;;
42186;SDS011;27858;51.414;0.018;2023-12-22T07:48:31;2.60;;;0.35;;
42186;SDS011;27858;51.414;0.018;2023-12-22T07:50:58;0.22;;;0.17;;
42186;SDS011;27858;51.414;0.018;2023-12-22T07:53:25;0.57;;;0.40;;
42186;SDS011;27858;51.414;0.018;2023-12-22T07:55:52;2.58;;;0.60;;
42186;SDS011;27858;51.414;0.018;2023-12-22T07:58:19;0.20;;;0.10;;
42186;SDS011;27858;51.414;0.018;2023-12-22T08:00:46;0.40;;;0.20;;
42186;SDS011;27858;51.414;0.018;2023-12-22T08:03:13;0.73;;;0.30;;
42186;SDS011;27858;51.414;0.018;2023-12-22T08:05:40;0.43;;;0.40;;
42186;SDS011;27858;51.414;0.018;2023-12-22T08:08:07;1.65;;;0.20;;
42186;SDS011;27858;51.414;0.018;2023-12-22T08:10:34;0.75;;;0.28;;
42186;SDS011;27858;51.414;0.018;2023-12-22T08:13:00;0.52;;;0.40;;
42186;SDS011;27858;51.414;0.018;2023-12-22T08:15:27;0.68;;;0.50;;
42186;SDS011;27858;51.414;0.018;2023-12-22T08:18:02;4.22;;;0.77;;
42186;SDS011;27858;51.414;0.018;2023-12-22T08:20:29;1.20;;;0.30;;
42186;SDS011;27858;51.414;0.018;2023-12-22T08:23:02;0.32;;;0.20;;
42186;SDS011;27858;51.414;0.018;2023-12-22T08:25:35;0.93;;;0.32;;
42186;SDS011;27858;51.414;0.018;2023-12-22T08:28:03;3.42;;;0.65;;
42186;SDS011;27858;51.414;0.018;2023-12-22T08:30:30;0.40;;;0.20;;
42186;SDS011;27858;51.414;0.018;2023-12-22T08:32:57;0.73;;;0.28;;
42186;SDS011;27858;51.414;0.018;2023-12-22T08:35:23;0.60;;;0.40;;
42186;SDS011;27858;51.414;0.018;2023-12-22T08:37:51;0.40;;;0.40;;
42186;SDS011;27858;51.414;0.018;2023-12-22T08:40:19;0.65;;;0.30;;
42186;SDS011;27858;51.414;0.018;2023-12-22T08:42:52;1.50;;;0.60;;
42186;SDS011;27858;51.414;0.018;2023-12-22T08:45:20;1.58;;;0.35;;
42186;SDS011;27858;51.414;0.018;2023-12-22T08:47:47;1.67;;;0.50;;
42186;SDS011;27858;51.414;0.018;2023-12-22T08:50:15;0.30;;;0.17;;
42186;SDS011;27858;51.414;0.018;2023-12-22T08:52:42;1.00;;;0.40;;
42186;SDS011;27858;51.414;0.018;2023-12-22T08:55:09;0.40;;;0.20;;
42186;SDS011;27858;51.414;0.018;2023-12-22T08:57:35;1.85;;;0.50;;
42186;SDS011;27858;51.414;0.018;2023-12-22T09:00:04;1.05;;;0.50;;
42186;SDS011;27858;51.414;0.018;2023-12-22T09:02:32;2.42;;;0.52;;
42186;SDS011;27858;51.414;0.018;2023-12-22T09:04:59;0.45;;;0.28;;
42186;SDS011;27858;51.414;0.018;2023-12-22T09:07:26;0.32;;;0.10;;
42186;SDS011;27858;51.414;0.018;2023-12-22T09:09:53;0.63;;;0.47;;
42186;SDS011;27858;51.414;0.018;2023-12-22T09:12:20;0.52;;;0.40;;
42186;SDS011;27858;51.414;0.018;2023-12-22T09:14:47;1.77;;;0.57;;
42186;SDS011;27858;51.414;0.018;2023-12-22T09:17:14;2.22;;;0.45;;
42186;SDS011;27858;51.414;0.018;2023-12-22T09:19:40;2.78;;;1.30;;
42186;SDS011;27858;51.414;0.018;2023-12-22T09:22:09;1.30;;;0.40;;
42186;SDS011;27858;51.414;0.018;2023-12-22T09:24:39;0.57;;;0.30;;
42186;SDS011;27858;51.414;0.018;2023-12-22T09:27:06;2.70;;;0.90;;
42186;SDS011;27858;51.414;0.018;2023-12-22T09:29:33;1.77;;;0.40;;
42186;SDS011;27858;51.414;0.018;2023-12-22T09:32:01;2.85;;;0.70;;
42186;SDS011;27858;51.414;0.018;2023-12-22T09:34:29;2.05;;;0.70;;
42186;SDS011;27858;51.414;0.018;2023-12-22T09:36:56;1.77;;;0.32;;
42186;SDS011;27858;51.414;0.018;2023-12-22T09:39:23;1.05;;;0.30;;
42186;SDS011;27858;51.414;0.018;2023-12-22T09:41:50;1.75;;;0.45;;
42186;SDS011;27858;51.414;0.018;2023-12-22T09:44:18;1.45;;;0.55;;
42186;SDS011;27858;51.414;0.018;2023-12-22T09:46:49;0.50;;;0.40;;
42186;SDS011;27858;51.414;0.018;2023-12-22T09:49:18;1.77;;;0.73;;
42186;SDS011;27858;51.414;0.018;2023-12-22T09:51:47;1.95;;;0.50;;
42186;SDS011;27858;51.414;0.018;2023-12-22T09:54:16;0.73;;;0.60;;
42186;SDS011;27858;51.414;0.018;2023-12-22T09:56:44;2.22;;;0.22;;
42186;SDS011;27858;51.414;0.018;2023-12-22T09:59:15;1.55;;;0.70;;
42186;SDS011;27858;51.414;0.018;2023-12-22T10:01:48;1.83;;;0.65;;
42186;SDS011;27858;51.414;0.018;2023-12-22T10:04:17;2.67;;;1.25;;
42186;SDS011;27858;51.414;0.018;2023-12-22T10:06:50;1.67;;;0.60;;
42186;SDS011;27858;51.414;0.018;2023-12-22T10:09:19;0.85;;;0.30;;
42186;SDS011;27858;51.414;0.018;2023-12-22T10:11:46;1.52;;;0.50;;
42186;SDS011;27858;51.414;0.018;2023-12-22T10:14:18;1.48;;;0.60;;
42186;SDS011;27858;51.414;0.018;2023-12-22T10:16:51;2.42;;;0.93;;
42186;SDS011;27858;51.414;0.018;2023-12-22T10:19:19;1.40;;;0.70;;
42186;SDS011;27858;51.414;0.018;2023-12-22T10:21:48;0.90;;;0.35;;
42186;SDS011;27858;51.414;0.018;2023-12-22T10:27:09;0.85;;;0.40;;
42186;SDS011;27858;51.414;0.018;2023-12-22T10:29:36;4.00;;;0.55;;
42186;SDS011;27858;51.414;0.018;2023-12-22T10:32:10;1.13;;;0.50;;
42186;SDS011;27858;51.414;0.018;2023-12-22T10:34:37;1.23;;;0.50;;
42186;SDS011;27858;51.414;0.018;2023-12-22T10:37:05;1.85;;;0.82;;
42186;SDS011;27858;51.414;0.018;2023-12-22T10:39:36;4.93;;;1.20;;
42186;SDS011;27858;51.414;0.018;2023-12-22T10:42:04;1.77;;;1.10;;
42186;SDS011;27858;51.414;0.018;2023-12-22T10:44:31;1.83;;;0.65;;
42186;SDS011;27858;51.414;0.018;2023-12-22T10:46:58;0.95;;;0.63;;
42186;SDS011;27858;51.414;0.018;2023-12-22T10:49:29;2.65;;;0.60;;
42186;SDS011;27858;51.414;0.018;2023-12-22T10:51:57;1.55;;;0.80;;
42186;SDS011;27858;51.414;0.018;2023-12-22T10:54:25;2.28;;;1.25;;
42186;SDS011;27858;51.414;0.018;2023-12-22T10:56:54;0.82;;;0.45;;
42186;SDS011;27858;51.414;0.018;2023-12-22T10:59:29;1.27;;;0.50;;
42186;SDS011;27858;51.414;0.018;2023-12-22T11:01:57;1.67;;;0.60;;
42186;SDS011;27858;51.414;0.018;2023-12-22T11:04:27;1.05;;;0.73;;
42186;SDS011;27858;51.414;0.018;2023-12-22T11:07:01;4.78;;;1.33;;
42186;SDS011;27858;51.414;0.018;2023-12-22T11:09:31;3.10;;;1.00;;
42186;SDS011;27858;51.414;0.018;2023-12-22T11:12:02;1.05;;;0.55;;
42186;SDS011;27858;51.414;0.018;2023-12-22T11:14:36;3.08;;;0.98;;
42186;SDS011;27858;51.414;0.018;2023-12-22T11:17:10;3.72;;;0.90;;
42186;SDS011;27858;51.414;0.018;2023-12-22T11:19:39;1.80;;;1.02;;
42186;SDS011;27858;51.414;0.018;2023-12-22T11:22:07;2.67;;;0.82;;
42186;SDS011;27858;51.414;0.018;2023-12-22T11:24:36;2.72;;;1.02;;
42186;SDS011;27858;51.414;0.018;2023-12-22T11:27:04;3.58;;;1.13;;
42186;SDS011;27858;51.414;0.018;2023-12-22T11:29:32;3.90;;;1.23;;
42186;SDS011;27858;51.414;0.018;2023-12-22T11:32:01;6.10;;;1.58;;
42186;SDS011;27858;51.414;0.018;2023-12-22T11:34:31;2.75;;;1.02;;
42186;SDS011;27858;51.414;0.018;2023-12-22T11:37:03;1.55;;;0.75;;
42186;SDS011;27858;51.414;0.018;2023-12-22T11:39:30;5.93;;;1.38;;
42186;SDS011;27858;51.414;0.018;2023-12-22T11:41:57;4.57;;;0.93;;
42186;SDS011;27858;51.414;0.018;2023-12-22T11:44:25;2.28;;;0.80;;
42186;SDS011;27858;51.414;0.018;2023-12-22T11:47:08;5.85;;;1.05;;
42186;SDS011;27858;51.414;0.018;2023-12-22T11:49:36;1.42;;;0.52;;
42186;SDS011;27858;51.414;0.018;2023-12-22T11:52:09;3.67;;;1.27;;
42186;SDS011;27858;51.414;0.018;2023-12-22T11:54:44;0.85;;;0.50;;
42186;SDS011;27858;51.414;0.018;2023-12-22T12:00:10;3.08;;;1.17;;
42186;SDS011;27858;51.414;0.018;2023-12-22T12:03:03;2.30;;;0.60;;
42186;SDS011;27858;51.414;0.018;2023-12-22T12:05:32;4.97;;;0.70;;
42186;SDS011;27858;51.414;0.018;2023-12-22T12:08:08;1.80;;;0.63;;
42186;SDS011;27858;51.414;0.018;2023-12-22T12:13:17;2.72;;;0.77;;
42186;SDS011;27858;51.414;0.018;2023-12-22T12:15:50;6.97;;;0.77;;
42186;SDS011;27858;51.414;0.018;2023-12-22T12:18:21;1.48;;;0.60;;
42186;SDS011;27858;51.414;0.018;2023-12-22T12:20:53;3.63;;;1.10;;
42186;SDS011;27858;51.414;0.018;2023-12-22T12:23:21;1.25;;;0.70;;
42186;SDS011;27858;51.414;0.018;2023-12-22T12:25:50;3.20;;;0.45;;
42186;SDS011;27858;51.414;0.018;2023-12-22T12:28:18;3.03;;;0.60;;
42186;SDS011;27858;51.414;0.018;2023-12-22T12:31:00;1.55;;;0.90;;
42186;SDS011;27858;51.414;0.018;2023-12-22T12:33:29;1.40;;;0.65;;
42186;SDS011;27858;51.414;0.018;2023-12-22T12:35:57;3.90;;;1.00;;
42186;SDS011;27858;51.414;0.018;2023-12-22T12:41:22;1.85;;;1.08;;
42186;SDS011;27858;51.414;0.018;2023-12-22T12:43:56;2.47;;;0.60;;
42186;SDS011;27858;51.414;0.018;2023-12-22T12:49:07;1.15;;;0.80;;
42186;SDS011;27858;51.414;0.018;2023-12-22T12:51:38;3.38;;;1.67;;
42186;SDS011;27858;51.414;0.018;2023-12-22T12:54:06;3.53;;;1.40;;
42186;SDS011;27858;51.414;0.018;2023-12-22T12:56:42;1.63;;;1.15;;
42186;SDS011;27858;51.414;0.018;2023-12-22T12:59:11;1.20;;;0.70;;
42186;SDS011;27858;51.414;0.018;2023-12-22T13:01:43;4.73;;;1.57;;
42186;SDS011;27858;51.414;0.018;2023-12-22T13:04:12;2.58;;;0.55;;
42186;SDS011;27858;51.414;0.018;2023-12-22T13:06:49;1.80;;;0.88;;
42186;SDS011;27858;51.414;0.018;2023-12-22T13:09:17;1.75;;;0.90;;
42186;SDS011;27858;51.414;0.018;2023-12-22T13:11:47;1.30;;;0.60;;
42186;SDS011;27858;51.414;0.018;2023-12-22T13:14:24;3.03;;;0.80;;
42186;SDS011;27858;51.414;0.018;2023-12-22T13:16:52;0.57;;;0.43;;
42186;SDS011;27858;51.414;0.018;2023-12-22T13:19:24;1.83;;;0.75;;
42186;SDS011;27858;51.414;0.018;2023-12-22T13:21:53;2.05;;;0.50;;
42186;SDS011;27858;51.414;0.018;2023-12-22T13:24:20;1.90;;;0.52;;
42186;SDS011;27858;51.414;0.018;2023-12-22T13:26:58;5.03;;;1.00;;
42186;SDS011;27858;51.414;0.018;2023-12-22T13:29:33;1.73;;;0.52;;
42186;SDS011;27858;51.414;0.018;2023-12-22T13:32:16;1.67;;;0.57;;
42186;SDS011;27858;51.414;0.018;2023-12-22T13:34:47;1.90;;;0.60;;
42186;SDS011;27858;51.414;0.018;2023-12-22T13:37:15;1.70;;;0.88;;
42186;SDS011;27858;51.414;0.018;2023-12-22T13:39:43;1.60;;;0.60;;
42186;SDS011;27858;51.414;0.018;2023-12-22T13:42:14;5.45;;;1.63;;
42186;SDS011;27858;51.414;0.018;2023-12-22T13:44:45;2.05;;;0.88;;
42186;SDS011;27858;51.414;0.018;2023-12-22T13:47:18;2.63;;;0.77;;
42186;SDS011;27858;51.414;0.018;2023-12-22T13:49:45;3.40;;;1.00;;
42186;SDS011;27858;51.414;0.018;2023-12-22T13:52:29;2.17;;;0.52;;
42186;SDS011;27858;51.414;0.018;2023-12-22T13:55:01;3.55;;;0.80;;
42186;SDS011;27858;51.414;0.018;2023-12-22T13:57:29;3.08;;;1.02;;
42186;SDS011;27858;51.414;0.018;2023-12-22T13:59:56;2.38;;;0.90;;
42186;SDS011;27858;51.414;0.018;2023-12-22T14:02:23;3.75;;;0.73;;
42186;SDS011;27858;51.414;0.018;2023-12-22T14:04:51;1.58;;;0.90;;
42186;SDS011;27858;51.414;0.018;2023-12-22T14:07:19;2.42;;;0.75;;
42186;SDS011;27858;51.414;0.018;2023-12-22T14:09:52;3.45;;;0.77;;
42186;SDS011;27858;51.414;0.018;2023-12-22T14:12:18;1.83;;;0.68;;
42186;SDS011;27858;51.414;0.018;2023-12-22T14:14:54;4.90;;;0.82;;
42186;SDS011;27858;51.414;0.018;2023-12-22T14:17:22;2.95;;;0.63;;
42186;SDS011;27858;51.414;0.018;2023-12-22T14:19:49;3.08;;;1.08;;
42186;SDS011;27858;51.414;0.018;2023-12-22T14:22:16;4.15;;;1.33;;
42186;SDS011;27858;51.414;0.018;2023-12-22T14:24:44;3.15;;;1.00;;
42186;SDS011;27858;51.414;0.018;2023-12-22T14:27:11;7.38;;;1.77;;
42186;SDS011;27858;51.414;0.018;2023-12-22T14:29:38;1.42;;;0.90;;
42186;SDS011;27858;51.414;0.018;2023-12-22T14:32:06;4.70;;;0.77;;
42186;SDS011;27858;51.414;0.018;2023-12-22T14:34:41;1.85;;;0.73;;
42186;SDS011;27858;51.414;0.018;2023-12-22T14:37:08;4.65;;;0.70;;
42186;SDS011;27858;51.414;0.018;2023-12-22T14:39:35;3.03;;;0.63;;
42186;SDS011;27858;51.414;0.018;2023-12-22T14:42:08;3.65;;;1.02;;
42186;SDS011;27858;51.414;0.018;2023-12-22T14:44:35;2.42;;;0.93;;
42186;SDS011;27858;51.414;0.018;2023-12-22T14:47:04;6.72;;;1.73;;
42186;SDS011;27858;51.414;0.018;2023-12-22T14:49:34;4.72;;;0.93;;
42186;SDS011;27858;51.414;0.018;2023-12-22T14:52:01;2.58;;;0.70;;
42186;SDS011;27858;51.414;0.018;2023-12-22T14:54:37;2.92;;;1.27;;
42186;SDS011;27858;51.414;0.018;2023-12-22T14:57:04;1.42;;;0.77;;
42186;SDS011;27858;51.414;0.018;2023-12-22T14:59:31;3.63;;;1.05;;
42186;SDS011;27858;51.414;0.018;2023-12-22T15:01:58;3.00;;;0.82;;
42186;SDS011;27858;51.414;0.018;2023-12-22T15:04:25;10.77;;;1.35;;
42186;SDS011;27858;51.414;0.018;2023-12-22T15:06:55;2.80;;;0.85;;
42186;SDS011;27858;51.414;0.018;2023-12-22T15:09:27;1.87;;;0.70;;
42186;SDS011;27858;51.414;0.018;2023-12-22T15:11:54;1.98;;;0.60;;